EJU691Q LFKF-LFLL
Flight info
| Callsign | EJU691Q |
|---|---|
| Flight time | N/A |
| Altitude | 32000 |
| Route | LONSU M622 PIGOS DCT BODRU DCT KOTIT/N0347F180 Y42 LASUR Z42 PINED |
| Aircraft | A320/M-SDE3FGHIRWY/LB1 |
Departure
| Time | 2026-04-15 10:40 |
|---|---|
| Airport | Figari Sud-Corse Airport (LFKF) |
Arrival
| Time | N/A |
|---|---|
| Airport | Lyon Saint-Exupéry Airport (LFLL) |
| Time | Latitude | Longitude | Altitude | Speed | Heading |
|---|---|---|---|---|---|
| 2026-04-15 10:14 | 41.49968 | 9.09792 | 72 ft | 0 kts | 137° |
| 2026-04-15 10:31 | 41.49979 | 9.09778 | 62 ft | 4 kts | 130° |
| 2026-04-15 10:31 | 41.49992 | 9.09750 | 64 ft | 1 kts | 106° |
| 2026-04-15 10:32 | 41.49993 | 9.09716 | 64 ft | 4 kts | 60° |
| 2026-04-15 10:32 | 41.49989 | 9.09706 | 66 ft | 1 kts | 47° |
| 2026-04-15 10:35 | 41.50025 | 9.09760 | 68 ft | 12 kts | 47° |
| 2026-04-15 10:36 | 41.50085 | 9.09818 | 67 ft | 11 kts | 358° |
| 2026-04-15 10:36 | 41.50162 | 9.09732 | 66 ft | 15 kts | 320° |
| 2026-04-15 10:36 | 41.50246 | 9.09724 | 65 ft | 16 kts | 47° |
| 2026-04-15 10:36 | 41.50331 | 9.09848 | 65 ft | 19 kts | 48° |
| 2026-04-15 10:37 | 41.50423 | 9.09982 | 67 ft | 19 kts | 47° |
| 2026-04-15 10:37 | 41.50513 | 9.10111 | 85 ft | 19 kts | 47° |
| 2026-04-15 10:37 | 41.50600 | 9.10239 | 84 ft | 22 kts | 48° |
| 2026-04-15 10:37 | 41.50702 | 9.10389 | 87 ft | 23 kts | 47° |
| 2026-04-15 10:38 | 41.50812 | 9.10548 | 88 ft | 23 kts | 47° |
| 2026-04-15 10:38 | 41.50910 | 9.10705 | 91 ft | 16 kts | 77° |
| 2026-04-15 10:38 | 41.50935 | 9.10806 | 93 ft | 9 kts | 35° |
| 2026-04-15 10:38 | 41.50957 | 9.10756 | 90 ft | 10 kts | 221° |
| 2026-04-15 10:39 | 41.50939 | 9.10735 | 90 ft | 1 kts | 230° |
| 2026-04-15 10:39 | 41.50933 | 9.10725 | 89 ft | 13 kts | 230° |
| 2026-04-15 10:39 | 41.50669 | 9.10342 | 88 ft | 94 kts | 227° |
| 2026-04-15 10:40 | 41.50076 | 9.09485 | 86 ft | 153 kts | 226° |
| 2026-04-15 10:40 | 41.49350 | 9.08422 | 756 ft | 154 kts | 227° |
| 2026-04-15 10:40 | 41.48482 | 9.07624 | 1472 ft | 157 kts | 201° |
| 2026-04-15 10:40 | 41.47456 | 9.07116 | 2160 ft | 157 kts | 201° |
| 2026-04-15 10:41 | 41.46432 | 9.06600 | 2776 ft | 157 kts | 200° |
| 2026-04-15 10:41 | 41.45404 | 9.06087 | 3352 ft | 162 kts | 200° |
| 2026-04-15 10:41 | 41.44270 | 9.05523 | 3715 ft | 184 kts | 200° |
| 2026-04-15 10:41 | 41.43009 | 9.04888 | 4154 ft | 206 kts | 200° |
| 2026-04-15 10:42 | 41.41744 | 9.03874 | 4590 ft | 230 kts | 231° |
| 2026-04-15 10:42 | 41.41012 | 9.01859 | 5061 ft | 250 kts | 260° |
| 2026-04-15 10:42 | 41.40904 | 8.99464 | 5528 ft | 271 kts | 277° |
| 2026-04-15 10:42 | 41.41001 | 8.96893 | 6270 ft | 283 kts | 274° |
| 2026-04-15 10:43 | 41.41027 | 8.94245 | 7127 ft | 289 kts | 272° |
| 2026-04-15 10:43 | 41.41019 | 8.91549 | 8010 ft | 292 kts | 272° |
| 2026-04-15 10:43 | 41.41001 | 8.88826 | 8862 ft | 296 kts | 272° |
| 2026-04-15 10:43 | 41.41186 | 8.86101 | 9688 ft | 297 kts | 285° |
| 2026-04-15 10:44 | 41.41862 | 8.83498 | 10385 ft | 302 kts | 299° |
| 2026-04-15 10:44 | 41.43044 | 8.81081 | 10632 ft | 322 kts | 311° |
| 2026-04-15 10:44 | 41.44445 | 8.78664 | 11122 ft | 334 kts | 310° |
| 2026-04-15 10:44 | 41.45855 | 8.76228 | 11825 ft | 339 kts | 310° |
| 2026-04-15 10:45 | 41.47305 | 8.73710 | 12588 ft | 343 kts | 310° |
| 2026-04-15 10:45 | 41.48760 | 8.71169 | 13337 ft | 346 kts | 310° |
| 2026-04-15 10:45 | 41.50223 | 8.68603 | 14057 ft | 349 kts | 310° |
| 2026-04-15 10:45 | 41.51694 | 8.66013 | 14700 ft | 352 kts | 310° |
| 2026-04-15 10:46 | 41.53278 | 8.63512 | 15321 ft | 352 kts | 321° |
| 2026-04-15 10:46 | 41.55319 | 8.61751 | 15925 ft | 350 kts | 340° |
| 2026-04-15 10:46 | 41.57526 | 8.60663 | 16543 ft | 351 kts | 343° |
| 2026-04-15 10:46 | 41.59846 | 8.59563 | 17181 ft | 355 kts | 343° |
| 2026-04-15 10:47 | 41.62181 | 8.58458 | 17816 ft | 358 kts | 343° |
| 2026-04-15 10:47 | 41.64545 | 8.57337 | 18418 ft | 361 kts | 343° |
| 2026-04-15 10:47 | 41.66924 | 8.56207 | 18938 ft | 364 kts | 343° |
| 2026-04-15 10:47 | 41.69326 | 8.55065 | 19461 ft | 368 kts | 343° |
| 2026-04-15 10:48 | 41.71749 | 8.53909 | 19984 ft | 371 kts | 342° |
| 2026-04-15 10:48 | 41.74193 | 8.52741 | 20504 ft | 374 kts | 342° |
| 2026-04-15 10:48 | 41.76660 | 8.51560 | 21012 ft | 377 kts | 342° |
| 2026-04-15 10:48 | 41.79147 | 8.50371 | 21512 ft | 381 kts | 342° |
| 2026-04-15 10:49 | 41.81652 | 8.49169 | 22003 ft | 384 kts | 342° |
| 2026-04-15 10:49 | 41.84142 | 8.47972 | 22496 ft | 387 kts | 342° |
| 2026-04-15 10:49 | 41.86690 | 8.46744 | 22974 ft | 390 kts | 341° |
| 2026-04-15 10:49 | 41.89223 | 8.45407 | 23428 ft | 393 kts | 339° |
| 2026-04-15 10:50 | 41.91746 | 8.43923 | 23881 ft | 396 kts | 338° |
| 2026-04-15 10:50 | 41.94252 | 8.42360 | 24286 ft | 399 kts | 337° |
| 2026-04-15 10:50 | 41.96771 | 8.40758 | 24682 ft | 401 kts | 336° |
| 2026-04-15 10:50 | 41.99304 | 8.39152 | 25079 ft | 403 kts | 337° |
| 2026-04-15 10:51 | 42.01856 | 8.37558 | 25464 ft | 405 kts | 337° |
| 2026-04-15 10:51 | 42.04423 | 8.35980 | 25850 ft | 407 kts | 338° |
| 2026-04-15 10:51 | 42.07010 | 8.34404 | 26233 ft | 409 kts | 338° |
| 2026-04-15 10:51 | 42.09603 | 8.32825 | 26736 ft | 407 kts | 339° |
| 2026-04-15 10:52 | 42.12181 | 8.31255 | 27238 ft | 406 kts | 339° |
| 2026-04-15 10:52 | 42.14756 | 8.29684 | 27676 ft | 406 kts | 339° |
| 2026-04-15 10:52 | 42.17336 | 8.28108 | 28083 ft | 407 kts | 339° |
| 2026-04-15 10:52 | 42.19915 | 8.26525 | 28472 ft | 409 kts | 339° |
| 2026-04-15 10:53 | 42.22505 | 8.24933 | 28858 ft | 410 kts | 339° |
| 2026-04-15 10:53 | 42.25106 | 8.23338 | 29235 ft | 411 kts | 339° |
| 2026-04-15 10:53 | 42.27718 | 8.21735 | 29594 ft | 413 kts | 339° |
| 2026-04-15 10:53 | 42.30336 | 8.20126 | 29951 ft | 414 kts | 339° |
| 2026-04-15 10:54 | 42.32931 | 8.18530 | 30262 ft | 416 kts | 340° |
| 2026-04-15 10:54 | 42.35563 | 8.16907 | 30573 ft | 416 kts | 340° |
| 2026-04-15 10:54 | 42.38228 | 8.15263 | 30879 ft | 416 kts | 340° |
| 2026-04-15 10:54 | 42.40835 | 8.13653 | 31169 ft | 417 kts | 340° |
| 2026-04-15 10:55 | 42.43481 | 8.12020 | 31452 ft | 418 kts | 340° |
| 2026-04-15 10:55 | 42.46120 | 8.10387 | 31842 ft | 416 kts | 340° |
| 2026-04-15 10:55 | 42.48748 | 8.08760 | 32040 ft | 414 kts | 340° |
| 2026-04-15 10:55 | 42.51330 | 8.07153 | 32074 ft | 401 kts | 340° |
| 2026-04-15 10:56 | 42.53834 | 8.05590 | 32076 ft | 393 kts | 340° |
| 2026-04-15 10:56 | 42.58776 | 8.02516 | 32084 ft | 389 kts | 340° |
| 2026-04-15 10:57 | 42.63700 | 7.99463 | 32084 ft | 389 kts | 340° |
| 2026-04-15 10:57 | 42.71056 | 7.94877 | 32088 ft | 385 kts | 341° |
| 2026-04-15 10:58 | 42.75903 | 7.91843 | 32072 ft | 382 kts | 342° |
| 2026-04-15 10:58 | 42.80736 | 7.88824 | 32088 ft | 381 kts | 342° |
| 2026-04-15 10:59 | 42.85555 | 7.85799 | 32089 ft | 381 kts | 342° |
| 2026-04-15 10:59 | 42.90363 | 7.82779 | 32089 ft | 380 kts | 342° |
| 2026-04-15 11:00 | 42.95171 | 7.79769 | 32092 ft | 380 kts | 342° |
| 2026-04-15 11:00 | 42.99969 | 7.76756 | 32080 ft | 380 kts | 342° |
| 2026-04-15 11:01 | 43.04774 | 7.73727 | 32082 ft | 379 kts | 342° |
| 2026-04-15 11:01 | 43.09571 | 7.70703 | 32085 ft | 379 kts | 342° |
| 2026-04-15 11:02 | 43.14328 | 7.67697 | 32089 ft | 379 kts | 342° |
| 2026-04-15 11:02 | 43.19111 | 7.64659 | 32066 ft | 379 kts | 341° |
| 2026-04-15 11:03 | 43.23894 | 7.61624 | 32074 ft | 378 kts | 342° |
| 2026-04-15 11:03 | 43.28674 | 7.58595 | 32063 ft | 378 kts | 341° |
| 2026-04-15 11:04 | 43.33447 | 7.55551 | 32073 ft | 377 kts | 342° |
| 2026-04-15 11:04 | 43.38199 | 7.52528 | 32086 ft | 376 kts | 342° |
| 2026-04-15 11:05 | 43.42946 | 7.49509 | 32070 ft | 375 kts | 341° |
| 2026-04-15 11:05 | 43.47683 | 7.46480 | 32073 ft | 375 kts | 341° |
| 2026-04-15 11:06 | 43.52391 | 7.43459 | 32080 ft | 375 kts | 341° |
| 2026-04-15 11:06 | 43.57118 | 7.40407 | 32084 ft | 375 kts | 341° |
| 2026-04-15 11:07 | 43.61758 | 7.37034 | 32078 ft | 384 kts | 330° |
| 2026-04-15 11:07 | 43.65541 | 7.31625 | 32083 ft | 397 kts | 317° |
| 2026-04-15 11:08 | 43.69058 | 7.25717 | 32085 ft | 398 kts | 318° |
| 2026-04-15 11:08 | 43.72584 | 7.19826 | 32087 ft | 398 kts | 318° |
| 2026-04-15 11:09 | 43.76240 | 7.14143 | 32089 ft | 390 kts | 325° |
| 2026-04-15 11:09 | 43.80231 | 7.09046 | 32088 ft | 390 kts | 325° |
| 2026-04-15 11:10 | 43.83560 | 7.04826 | 32082 ft | 391 kts | 325° |
| 2026-04-15 11:10 | 43.88218 | 6.98903 | 32076 ft | 390 kts | 325° |
| 2026-04-15 11:11 | 43.91567 | 6.94618 | 32068 ft | 392 kts | 324° |
| 2026-04-15 11:11 | 43.95585 | 6.89465 | 32069 ft | 395 kts | 324° |
| 2026-04-15 11:12 | 43.99623 | 6.84280 | 32054 ft | 395 kts | 324° |
| 2026-04-15 11:12 | 44.03682 | 6.79066 | 32062 ft | 398 kts | 324° |
| 2026-04-15 11:13 | 44.07728 | 6.73868 | 32060 ft | 398 kts | 323° |
| 2026-04-15 11:13 | 44.09756 | 6.71253 | 31834 ft | 396 kts | 323° |
| 2026-04-15 11:13 | 44.11763 | 6.68655 | 31582 ft | 393 kts | 323° |
| 2026-04-15 11:14 | 44.13761 | 6.66068 | 31325 ft | 391 kts | 323° |
| 2026-04-15 11:14 | 44.15756 | 6.63487 | 31077 ft | 390 kts | 323° |
| 2026-04-15 11:14 | 44.17735 | 6.60921 | 30834 ft | 388 kts | 323° |
| 2026-04-15 11:14 | 44.19695 | 6.58377 | 30600 ft | 388 kts | 323° |
| 2026-04-15 11:15 | 44.21665 | 6.55818 | 30364 ft | 386 kts | 323° |
| 2026-04-15 11:15 | 44.23624 | 6.53269 | 30099 ft | 384 kts | 322° |